Davenport, IA (52806)

1:47 PM CDT on September 04, 2015 (GMT -0500)
West 54th and pine Street, Davenport | | Change Station
CLOSE
Current Station
Personal Weather Station
Location: Davenport, IA
Elevation: 738 ft
Nearby Weather Stations

Elev 738 ft 41.58 °N, 90.60 °W | Updated 5 seconds ago

Partly Cloudy
Partly Cloudy
90.0 °F
Feels Like 96 °F
N
2.5
Wind Variable Wind from SSW
Gusts 4.9 mph

Today
High -- | Low -- °F
--% Chance of Precip.
Yesterday
High -- | Low -- °F
Precip. -- in
6:31 AM 7:30 PM
Waning Gibbous, 57% visible
Pressure 29.99 in
Visibility 10.0 miles
Clouds Few 6000 ft
Heat Index 96 °F
Dew Point 70 °F
Humidity 52%
Rainfall 0.00 in
Snow Depth Not available.
UV 2.0 out of 12
Pollen 8.80 out of 12
Air Quality Not available.
Flu Activity Not available.
METAR KDVN 041752Z AUTO 20004KT 10SM FEW060 31/21 A3001 RMK AO2 SLP155 T03060211 10317 20206 58005
Pressure 29.99 in
Visibility 10.0 miles
Clouds Few 6000 ft
Heat Index 96 °F
Dew Point 70 °F
Humidity 52%
Rainfall 0.00 in
Snow Depth Not available.
UV 2.0 out of 12
Pollen 8.80 out of 12
Air Quality Not available.
Flu Activity Not available.
METAR KDVN 041752Z AUTO 20004KT 10SM FEW060 31/21 A3001 RMK AO2 SLP155 T03060211 10317 20206 58005

10-Day Weather Forecast

×

Almanac

Astronomy

Sep. 04, 2015 Rise Set
Actual Time
Civil Twilight
Nautical Twilight
Astronomical Twilight
Moon
Length of Visible Light
Length of Day
Tomorrow will be .
, % of the Moon is Illuminated

Today's Extremes

State Highs State Lows

Community

WunderPhotos

Upload Photos

1,852,262 photos uploaded!

WunderBlogs® & News

Nearby

Air Quality

  Air Quality AQ Index Pollutant
Not available.

Snow Depth

Station Depth Elevation

Earthquake Activity

City Distance Mag. Time & Date
Minimum magnitude displayed is 2.5.

Coastal Water Temperatures

Place Temperature

Stations

Nearby Weather Stations

Station Location Temp. Windchill Dew Point Humidity Wind Precip. Elev Updated Type